Time;durP1;ratioP1;P1;durP2;ratioP2;P2;SDS_P1;SDS_P2;PMS_P1;PMS_P2;Temp;Humidity;BMP_temperature;BMP_pressure;BME280_temperature;BME280_humidity;BME280_pressure;Samples;Min_cycle;Max_cycle;Signal;HPM_P1;HPM_P2
2023/01/04 00:00:11;;;;;;;135.20;74.30;;;;;;;0.92;84.17;100117.63;86115;1284;99394;-76
2023/01/04 00:02:33;;;;;;;164.10;88.80;;;;;;;0.92;84.42;100118.67;86075;1284;22571;-77
2023/01/04 00:04:35;;;;;;;167.50;89.30;;;;;;;0.92;84.34;100119.54;85869;1290;22574;-77
2023/01/04 00:06:36;;;;;;;152.10;85.50;;;;;;;0.92;84.33;100117.63;85898;1291;99312;-75
2023/01/04 00:08:39;;;;;;;156.10;84.70;;;;;;;0.91;84.58;100113.98;86041;1288;22474;-77
2023/01/04 00:10:40;;;;;;;158.90;84.60;;;;;;;0.88;84.20;100114.13;86022;1287;22898;-77
2023/01/04 00:12:42;;;;;;;157.70;85.10;;;;;;;0.85;84.51;100118.09;86078;1284;100077;-76
2023/01/04 00:14:44;;;;;;;142.80;78.90;;;;;;;0.82;84.32;100113.55;86268;1280;23409;-78
2023/01/04 00:16:45;;;;;;;164.60;85.60;;;;;;;0.77;84.23;100112.13;86253;1284;22750;-78
2023/01/04 00:18:48;;;;;;;162.40;82.90;;;;;;;0.76;84.38;100114.71;86093;1290;100686;-76
2023/01/04 00:20:50;;;;;;;139.40;78.20;;;;;;;0.73;84.27;100116.23;86211;1290;22442;-76
2023/01/04 00:22:57;;;;;;;146.00;82.70;;;;;;;0.65;84.14;100116.15;86056;1304;100053;-76
2023/01/04 00:24:59;;;;;;;152.50;80.90;;;;;;;0.59;84.10;100117.64;86152;1288;24191;-77
2023/01/04 00:27:01;;;;;;;142.20;80.80;;;;;;;0.52;84.01;100116.19;86304;1287;25280;-76
2023/01/04 00:29:06;;;;;;;153.00;83.30;;;;;;;0.48;84.10;100118.40;86216;1282;99721;-76
2023/01/04 00:31:11;;;;;;;152.30;83.60;;;;;;;0.46;84.10;100119.41;86453;1287;24322;-77
2023/01/04 00:33:12;;;;;;;130.80;75.60;;;;;;;0.41;83.98;100120.56;86292;1289;22448;-77
2023/01/04 00:35:14;;;;;;;143.90;78.30;;;;;;;0.41;83.96;100121.94;86043;1291;99543;-76
2023/01/04 00:37:16;;;;;;;151.40;80.00;;;;;;;0.32;84.15;100112.52;86276;1288;22527;-77
2023/01/04 00:39:18;;;;;;;143.90;79.30;;;;;;;0.30;84.15;100116.63;86164;1297;23753;-77
2023/01/04 00:41:20;;;;;;;153.60;80.60;;;;;;;0.24;84.08;100115.16;86257;1288;98276;-76
2023/01/04 00:43:21;;;;;;;154.00;83.50;;;;;;;0.18;83.82;100119.25;86296;1288;24822;-78
2023/01/04 00:45:24;;;;;;;136.50;74.50;;;;;;;0.14;84.04;100117.98;86399;1287;24255;-75
2023/01/04 00:47:26;;;;;;;130.50;72.90;;;;;;;0.09;83.96;100117.41;86158;1288;98431;-77
2023/01/04 00:49:29;;;;;;;126.10;72.20;;;;;;;0.02;84.10;100110.92;86109;1283;22522;-77
2023/01/04 00:51:32;;;;;;;122.20;72.10;;;;;;;-0.00;83.89;100114.36;86424;1290;24334;-75
2023/01/04 00:53:34;;;;;;;122.30;71.00;;;;;;;-0.00;84.10;100115.22;86175;1280;99741;-76
2023/01/04 00:55:37;;;;;;;125.90;71.20;;;;;;;-0.01;84.11;100114.35;86212;1288;23381;-77
2023/01/04 00:57:38;;;;;;;128.60;74.00;;;;;;;-0.05;84.17;100111.00;86240;1291;23071;-76
2023/01/04 00:59:40;;;;;;;124.50;72.80;;;;;;;-0.10;83.98;100110.42;86229;1288;99777;-77
2023/01/04 01:01:43;;;;;;;132.90;75.30;;;;;;;-0.13;84.13;100105.02;86207;1291;22477;-78
2023/01/04 01:03:44;;;;;;;133.30;75.90;;;;;;;-0.15;84.12;100107.07;86178;1290;22996;-76
2023/01/04 01:05:46;;;;;;;128.30;72.20;;;;;;;-0.16;84.00;100106.20;86392;1301;98516;-77
2023/01/04 01:07:49;;;;;;;127.00;71.70;;;;;;;-0.23;83.88;100108.53;86300;1291;22501;-77
2023/01/04 01:09:51;;;;;;;113.00;67.70;;;;;;;-0.27;84.02;100112.27;86175;1283;211340;-77
2023/01/04 01:11:53;;;;;;;124.80;70.50;;;;;;;-0.32;83.94;100110.27;86548;1288;99714;-77
2023/01/04 01:13:57;;;;;;;117.40;71.00;;;;;;;-0.35;84.12;100110.25;86216;1297;24409;-77
2023/01/04 01:16:04;;;;;;;125.00;69.60;;;;;;;-0.36;84.29;100109.38;86403;1280;24295;-76
2023/01/04 01:18:05;;;;;;;113.30;66.20;;;;;;;-0.36;84.14;100108.17;86279;1291;98985;-77
2023/01/04 01:20:09;;;;;;;102.40;59.80;;;;;;;-0.37;84.28;100108.84;86362;1290;22482;-77
2023/01/04 01:22:11;;;;;;;100.10;57.30;;;;;;;-0.40;84.30;100107.41;86449;1304;22623;-75
2023/01/04 01:24:20;;;;;;;107.20;58.40;;;;;;;-0.44;84.25;100101.48;86451;1288;99009;-75
2023/01/04 01:26:23;;;;;;;94.90;57.40;;;;;;;-0.47;84.18;100100.24;86135;1291;24274;-76
2023/01/04 01:28:25;;;;;;;99.80;58.70;;;;;;;-0.50;84.14;100100.02;86342;1288;25382;-76
2023/01/04 01:30:27;;;;;;;100.60;57.70;;;;;;;-0.52;84.06;100099.65;86275;1288;100037;-76
2023/01/04 01:32:29;;;;;;;99.20;58.30;;;;;;;-0.53;84.26;100099.13;86329;1288;22663;-76
2023/01/04 01:34:31;;;;;;;92.60;54.50;;;;;;;-0.53;84.30;100100.84;86156;1291;22522;-77
2023/01/04 01:36:33;;;;;;;105.10;56.40;;;;;;;-0.56;84.07;100101.48;86409;1289;99480;-76
2023/01/04 01:38:36;;;;;;;97.10;53.80;;;;;;;-0.58;84.09;100095.09;86262;1298;25712;-76
2023/01/04 01:40:41;;;;;;;97.00;58.00;;;;;;;-0.59;84.24;100096.77;86209;1280;22715;-76
2023/01/04 01:42:43;;;;;;;93.10;54.10;;;;;;;-0.61;84.14;100096.05;86089;1303;99483;-77
2023/01/04 01:44:44;;;;;;;85.20;50.40;;;;;;;-0.63;84.17;100093.79;86154;1291;22543;-76
2023/01/04 01:46:52;;;;;;;90.20;54.30;;;;;;;-0.63;84.20;100098.09;86315;1287;22495;-76
2023/01/04 01:49:02;;;;;;;85.40;52.50;;;;;;;-0.66;84.08;100090.81;86396;1288;99314;-76
2023/01/04 01:51:04;;;;;;;85.90;51.00;;;;;;;-0.70;84.12;100090.91;86813;1284;22484;-77
2023/01/04 01:53:08;;;;;;;81.20;50.90;;;;;;;-0.76;84.08;100087.55;86357;1290;99688;-77
2023/01/04 01:55:11;;;;;;;97.90;54.80;;;;;;;-0.74;84.11;100096.90;86529;1288;25720;-76
2023/01/04 01:57:17;;;;;;;97.90;57.00;;;;;;;-0.74;84.21;100098.11;86427;1286;23334;-76
2023/01/04 01:59:21;;;;;;;98.60;57.50;;;;;;;-0.71;84.29;100104.19;86204;1290;99481;-77
2023/01/04 02:01:22;;;;;;;107.60;61.50;;;;;;;-0.67;84.46;100102.02;86429;1283;22513;-78
2023/01/04 02:03:40;;;;;;;107.60;65.60;;;;;;;-0.64;84.49;100100.50;86307;1283;23307;-77
2023/01/04 02:05:44;;;;;;;113.10;65.40;;;;;;;-0.58;84.50;100100.08;86237;1291;100446;-77
2023/01/04 02:07:47;;;;;;;105.00;63.40;;;;;;;-0.54;84.72;100100.31;86504;1281;25188;-77
2023/01/04 02:09:50;;;;;;;120.70;74.70;;;;;;;-0.53;84.64;100104.29;86432;1285;22746;-77
2023/01/04 02:11:51;;;;;;;110.30;66.20;;;;;;;-0.48;84.63;100111.79;86421;1287;100087;-77
2023/01/04 02:16:51;;;;;;;97.50;57.20;;;;;;;-0.42;84.66;100111.54;86429;1288;25407;-76
2023/01/04 02:19:00;;;;;;;97.20;54.80;;;;;;;-0.40;84.70;100110.54;85888;1286;98245;-77
2023/01/04 02:21:22;;;;;;;98.90;56.20;;;;;;;-0.36;84.83;100104.89;85958;1287;22787;-77
2023/01/04 02:24:01;;;;;;;83.30;51.30;;;;;;;-0.34;84.88;100095.41;85718;1286;98374;-77
2023/01/04 02:26:08;;;;;;;90.80;53.30;;;;;;;-0.29;84.70;100102.73;85833;1299;26430;-78
2023/01/04 02:28:12;;;;;;;86.90;52.30;;;;;;;-0.27;84.88;100105.19;85992;1290;22549;-76
2023/01/04 02:31:10;;;;;;;90.40;49.70;;;;;;;-0.25;84.91;100102.80;85731;1293;98948;-77
2023/01/04 02:33:54;;;;;;;89.80;50.40;;;;;;;-0.22;84.72;100093.52;85097;1313;22545;-77
2023/01/04 02:36:05;;;;;;;78.10;48.00;;;;;;;-0.24;84.63;100089.52;84761;1306;100080;-77
2023/01/04 02:38:13;;;;;;;85.30;49.60;;;;;;;-0.25;84.67;100085.02;84892;1301;22569;-77
2023/01/04 02:40:28;;;;;;;93.20;51.00;;;;;;;-0.24;84.62;100079.32;84674;1309;23321;-78
2023/01/04 02:45:04;;;;;;;89.80;49.80;;;;;;;-0.24;84.72;100081.38;84846;1312;23787;-78
2023/01/04 02:47:11;;;;;;;91.60;50.60;;;;;;;-0.27;84.51;100080.84;84502;1309;98720;-78
2023/01/04 02:51:36;;;;;;;54.00;38.10;;;;;;;-0.31;84.77;100078.02;84833;1306;22574;-78
2023/01/04 02:53:40;;;;;;;79.80;46.00;;;;;;;-0.31;84.68;100075.23;84732;1308;98498;-78
2023/01/04 02:56:05;;;;;;;83.10;46.40;;;;;;;-0.34;84.72;100077.64;84973;1308;22822;-78
2023/01/04 02:58:21;;;;;;;86.40;50.80;;;;;;;-0.38;84.57;100072.39;85270;1298;23506;-78
2023/01/04 03:06:14;;;;;;;82.40;51.50;;;;;;;-0.47;84.51;100059.31;85173;1300;99918;-78
2023/01/04 03:08:22;;;;;;;83.90;51.20;;;;;;;-0.50;84.59;100058.60;85792;1294;22873;-78
2023/01/04 03:10:46;;;;;;;82.60;50.60;;;;;;;-0.50;84.66;100055.30;85951;1281;24241;-81
2023/01/04 03:12:56;;;;;;;84.90;50.90;;;;;;;-0.52;84.65;100057.01;86337;1284;98159;-78
2023/01/04 03:15:00;;;;;;;92.90;55.20;;;;;;;-0.55;84.52;100054.20;86322;1288;22529;-78
2023/01/04 03:17:11;;;;;;;92.80;54.40;;;;;;;-0.55;84.60;100055.24;86279;1295;98717;-79
2023/01/04 03:19:50;;;;;;;85.20;50.90;;;;;;;-0.57;84.76;100049.69;86126;1291;22613;-79
2023/01/04 03:21:43;;;;;;;79.10;48.20;;;;;;;-0.62;84.62;100043.57;86210;1291;22757;-79
2023/01/04 03:36:22;;;;;;;80.10;45.30;;;;;;;-0.86;84.49;100033.02;86272;1297;98996;-80
2023/01/04 03:49:26;;;;;;;80.50;48.90;;;;;;;-1.05;84.56;100034.13;86512;1288;26699;-79
2023/01/04 03:51:33;;;;;;;78.80;48.20;;;;;;;-1.08;84.47;100038.21;86462;1289;22513;-79
2023/01/04 03:53:50;;;;;;;87.90;50.40;;;;;;;-1.11;84.49;100037.14;86403;1312;98951;-78
2023/01/04 03:55:54;;;;;;;88.00;51.90;;;;;;;-1.13;84.49;100033.30;86384;1298;22540;-79
2023/01/04 03:57:57;;;;;;;84.70;52.10;;;;;;;-1.23;84.34;100022.28;86512;1304;22558;-79
2023/01/04 04:00:08;;;;;;;95.30;51.80;;;;;;;-1.19;84.44;100035.09;86779;1289;98466;-80
2023/01/04 04:02:12;;;;;;;;;;;;;;;-1.21;84.42;100035.25;86486;1298;23602;-79
2023/01/04 04:08:55;;;;;;;91.50;54.20;;;;;;;-1.26;84.56;100028.09;86524;1288;22524;-80
2023/01/04 04:13:32;;;;;;;97.60;57.60;;;;;;;-1.32;84.38;100030.73;86455;1297;22719;-80
2023/01/04 04:15:35;;;;;;;93.10;58.80;;;;;;;-1.36;84.41;100028.09;86519;1288;22589;-80
2023/01/04 04:17:37;;;;;;;104.80;58.40;;;;;;;-1.40;84.44;100024.93;86446;1310;98953;-79
2023/01/04 04:19:39;;;;;;;113.00;62.90;;;;;;;-1.43;84.33;100023.15;86621;1309;24466;-79
2023/01/04 04:21:41;;;;;;;107.40;63.10;;;;;;;-1.46;84.30;100024.13;86528;1297;22511;-80
2023/01/04 04:23:45;;;;;;;101.80;64.80;;;;;;;-1.49;84.33;100021.31;86556;1312;99056;-79
2023/01/04 04:25:46;;;;;;;109.30;62.10;;;;;;;-1.51;84.31;100018.36;86566;1312;22693;-80
2023/01/04 04:27:48;;;;;;;108.00;67.50;;;;;;;-1.53;84.44;100011.42;86559;1313;22534;-79
2023/01/04 04:29:50;;;;;;;117.00;67.60;;;;;;;-1.53;84.48;100016.09;86688;1295;98467;-81
2023/01/04 04:31:52;;;;;;;115.20;66.20;;;;;;;-1.51;84.57;100018.67;86833;1311;24279;-80
2023/01/04 04:33:53;;;;;;;114.00;66.20;;;;;;;-1.52;84.51;100020.42;86650;1296;22425;-81
2023/01/04 04:35:55;;;;;;;114.30;65.60;;;;;;;-1.53;84.48;100020.23;86721;1301;98618;-80
2023/01/04 04:37:57;;;;;;;106.10;62.50;;;;;;;-1.57;84.42;100020.15;86655;1312;24269;-80
2023/01/04 04:39:59;;;;;;;119.10;68.50;;;;;;;-1.61;84.32;100017.66;86825;1284;22662;-80
2023/01/04 04:42:00;;;;;;;127.20;71.60;;;;;;;-1.63;84.42;100021.07;86642;1309;98482;-78
2023/01/04 04:44:03;;;;;;;121.30;70.80;;;;;;;-1.65;84.38;100017.77;86680;1296;22492;-80
2023/01/04 04:46:05;;;;;;;116.10;70.40;;;;;;;-1.64;84.43;100017.44;86512;1307;22514;-81
2023/01/04 04:48:07;;;;;;;124.30;71.90;;;;;;;-1.66;84.49;100011.38;86535;1299;98592;-81
2023/01/04 04:50:09;;;;;;;131.00;73.20;;;;;;;-1.65;84.57;100014.66;86695;1288;22892;-80
2023/01/04 04:52:10;;;;;;;118.60;70.80;;;;;;;-1.63;84.60;100012.98;86520;1291;23202;-80
2023/01/04 04:54:18;;;;;;;120.70;69.50;;;;;;;-1.63;84.66;100010.56;86583;1308;99330;-79
2023/01/04 04:56:20;;;;;;;119.80;71.70;;;;;;;-1.65;84.59;100007.08;86698;1303;24327;-80
2023/01/04 04:58:21;;;;;;;132.00;73.00;;;;;;;-1.66;84.71;100000.02;86628;1294;23892;-78
2023/01/04 05:00:23;;;;;;;125.10;69.50;;;;;;;-1.67;84.59;99999.48;86484;1300;99601;-78
2023/01/04 05:02:25;;;;;;;122.20;75.00;;;;;;;-1.68;84.63;99994.10;86563;1291;23760;-79
2023/01/04 05:04:26;;;;;;;120.50;70.10;;;;;;;-1.67;84.53;99987.58;86768;1312;22496;-78
2023/01/04 05:06:28;;;;;;;123.60;71.90;;;;;;;-1.68;84.56;99988.93;86518;1297;98921;-80
2023/01/04 05:08:30;;;;;;;107.70;71.00;;;;;;;-1.71;84.56;99984.05;86718;1301;24302;-79
2023/01/04 05:10:33;;;;;;;134.50;73.70;;;;;;;-1.73;84.53;99981.63;86740;1298;23128;-80
2023/01/04 05:14:56;;;;;;;119.70;71.90;;;;;;;-1.73;84.60;99970.41;86840;1288;25741;-78
2023/01/04 05:16:58;;;;;;;122.50;74.50;;;;;;;-1.75;84.67;99967.95;86882;1294;23013;-80
2023/01/04 05:18:59;;;;;;;128.10;75.10;;;;;;;-1.74;84.65;99965.06;86715;1291;98530;-79
2023/01/04 05:21:01;;;;;;;115.50;69.20;;;;;;;-1.74;84.63;99957.82;86949;1313;26509;-79
2023/01/04 05:23:04;;;;;;;130.60;72.10;;;;;;;-1.75;84.58;99952.30;86768;1296;23613;-78
2023/01/04 05:25:07;;;;;;;142.70;76.30;;;;;;;-1.79;84.54;99943.77;86743;1292;99046;-78
2023/01/04 05:27:09;;;;;;;176.20;77.70;;;;;;;-1.76;84.49;99947.63;87098;1298;22777;-79
2023/01/04 05:30:49;;;;;;;180.00;79.40;;;;;;;-1.77;84.72;99951.73;86961;1307;22486;-79
2023/01/04 05:31:33;;;;;;;224.90;82.70;;;;;;;-1.73;84.76;99953.52;87056;1280;25268;-79
2023/01/04 05:33:35;;;;;;;270.50;85.60;;;;;;;-1.69;84.83;99953.26;87092;1297;22485;-78
2023/01/04 05:35:37;;;;;;;358.40;92.00;;;;;;;-1.64;84.98;99954.37;87093;1291;102721;-77
2023/01/04 05:37:38;;;;;;;360.00;94.00;;;;;;;-1.60;84.96;99951.85;87400;1288;22533;-81
2023/01/04 05:39:40;;;;;;;430.30;96.00;;;;;;;-1.55;85.04;99954.18;86721;1304;23314;-79
2023/01/04 05:44:05;;;;;;;398.30;103.10;;;;;;;-1.45;85.21;99948.31;86924;1293;22695;-79
2023/01/04 05:46:07;;;;;;;394.90;94.90;;;;;;;-1.41;85.25;99955.96;86622;1291;24263;-78
2023/01/04 05:48:09;;;;;;;399.70;99.50;;;;;;;-1.42;85.05;99953.71;86781;1294;99592;-77
2023/01/04 05:50:11;;;;;;;466.70;103.80;;;;;;;-1.41;85.13;99953.73;86874;1294;22547;-80
2023/01/04 05:52:12;;;;;;;603.00;112.80;;;;;;;-1.37;85.29;99953.42;86838;1293;22537;-79
2023/01/04 05:54:14;;;;;;;798.20;122.40;;;;;;;-1.33;85.33;99955.05;86763;1294;99580;-78
2023/01/04 05:56:16;;;;;;;724.50;126.70;;;;;;;-1.28;85.40;99958.74;86825;1297;22642;-79
2023/01/04 05:58:18;;;;;;;895.90;136.40;;;;;;;-1.25;85.35;99956.38;86828;1297;22594;-80
2023/01/04 06:00:20;;;;;;;1334.60;138.00;;;;;;;-1.21;85.43;99955.06;86822;1287;98476;-79
2023/01/04 06:02:26;;;;;;;1091.80;129.70;;;;;;;-1.19;85.46;99952.67;86814;1291;22481;-79
2023/01/04 06:04:28;;;;;;;815.70;125.00;;;;;;;-1.18;85.53;99954.25;86799;1313;22626;-77
2023/01/04 06:06:30;;;;;;;1415.70;139.40;;;;;;;-1.14;85.63;99952.58;86972;1293;99030;-79
2023/01/04 06:08:32;;;;;;;1002.10;131.30;;;;;;;-1.11;85.53;99951.08;86785;1315;22737;-79
2023/01/04 06:10:34;;;;;;;1342.20;139.30;;;;;;;-1.09;85.60;99946.95;86839;1287;22499;-78
2023/01/04 06:12:36;;;;;;;912.20;116.70;;;;;;;-1.06;85.55;99941.83;86786;1312;99274;-78
2023/01/04 06:14:38;;;;;;;1059.50;116.50;;;;;;;-1.05;85.50;99946.16;87035;1296;23791;-78
2023/01/04 06:16:40;;;;;;;997.10;114.70;;;;;;;-1.04;85.62;99949.12;86906;1298;22472;-79
2023/01/04 06:18:42;;;;;;;727.90;103.90;;;;;;;-1.04;85.54;99946.52;86879;1316;100000;-79
2023/01/04 06:20:43;;;;;;;898.10;110.60;;;;;;;-1.05;85.43;99943.05;86911;1290;22553;-78
2023/01/04 06:22:45;;;;;;;935.70;110.40;;;;;;;-1.06;85.47;99942.02;87210;1301;22518;-79
2023/01/04 06:24:47;;;;;;;858.90;113.30;;;;;;;-1.12;85.38;99937.77;87158;1313;98840;-80
2023/01/04 06:26:49;;;;;;;536.30;104.70;;;;;;;-1.13;85.35;99938.45;87356;1294;22505;-80
2023/01/04 06:28:50;;;;;;;454.20;95.50;;;;;;;-1.15;85.39;99937.90;87387;1301;22648;-80
2023/01/04 06:30:52;;;;;;;501.30;99.70;;;;;;;-1.15;85.36;99941.52;87212;1295;98629;-79
2023/01/04 06:32:54;;;;;;;533.40;101.40;;;;;;;-1.19;85.38;99934.21;87352;1301;22851;-78
2023/01/04 06:34:56;;;;;;;563.80;102.60;;;;;;;-1.21;85.27;99928.15;87212;1294;22674;-76
2023/01/04 06:36:58;;;;;;;1080.30;116.60;;;;;;;-1.23;85.28;99926.93;87134;1297;98458;-80
2023/01/04 06:39:00;;;;;;;792.30;111.00;;;;;;;-1.25;85.33;99918.98;87255;1317;22587;-80
2023/01/04 06:41:03;;;;;;;695.80;104.80;;;;;;;-1.23;85.42;99916.58;87417;1295;23816;-77
2023/01/04 06:43:04;;;;;;;590.00;101.00;;;;;;;-1.23;85.38;99910.20;87371;1297;98754;-78
2023/01/04 06:45:07;;;;;;;581.30;98.70;;;;;;;-1.22;85.48;99906.77;87301;1295;24190;-78
2023/01/04 06:47:08;;;;;;;805.40;110.50;;;;;;;-1.25;85.52;99906.02;87170;1312;22663;-78
2023/01/04 06:49:13;;;;;;;540.00;108.10;;;;;;;-1.25;85.43;99909.13;87235;1308;99066;-77
2023/01/04 06:51:14;;;;;;;493.00;104.30;;;;;;;-1.25;85.50;99912.40;87387;1293;22489;-79
2023/01/04 06:53:16;;;;;;;683.60;102.20;;;;;;;-1.26;85.49;99913.77;87286;1287;22609;-80
2023/01/04 06:55:18;;;;;;;670.30;98.50;;;;;;;-1.27;85.49;99914.62;87156;1298;98451;-79
2023/01/04 06:57:19;;;;;;;827.00;107.80;;;;;;;-1.29;85.46;99911.65;87325;1309;22490;-78
2023/01/04 06:59:24;;;;;;;561.80;91.90;;;;;;;-1.30;85.45;99915.27;87292;1303;22514;-79
2023/01/04 07:01:26;;;;;;;579.80;99.40;;;;;;;-1.32;85.34;99926.95;87694;1308;22517;-78
2023/01/04 07:03:27;;;;;;;674.50;102.70;;;;;;;-1.32;85.34;99926.45;87953;1313;22497;-77
2023/01/04 07:05:29;;;;;;;501.20;93.70;;;;;;;-1.34;85.48;99926.77;88005;1304;99273;-77
2023/01/04 07:07:34;;;;;;;445.80;96.60;;;;;;;-1.36;85.42;99925.01;87882;1314;22519;-77
2023/01/04 07:09:36;;;;;;;306.50;81.90;;;;;;;-1.41;85.23;99921.13;87989;1314;22496;-76
2023/01/04 07:11:37;;;;;;;448.50;80.40;;;;;;;-1.46;85.14;99917.44;87934;1310;99303;-78
2023/01/04 07:13:39;;;;;;;540.40;85.10;;;;;;;-1.49;85.26;99919.11;87877;1317;22681;-77
2023/01/04 07:15:41;;;;;;;433.20;82.70;;;;;;;-1.50;85.23;99917.20;88063;1304;22504;-77
2023/01/04 07:17:47;;;;;;;358.10;75.30;;;;;;;-1.64;85.27;99897.00;87973;1320;98610;-76
2023/01/04 07:19:48;;;;;;;295.80;76.40;;;;;;;-1.56;85.18;99908.84;88096;1313;22773;-76
2023/01/04 07:21:52;;;;;;;245.00;76.50;;;;;;;-1.58;85.14;99904.51;88110;1316;22288;-77
2023/01/04 07:23:55;;;;;;;334.50;79.90;;;;;;;-1.59;85.31;99903.11;88101;1312;99057;-77
2023/01/04 07:26:01;;;;;;;492.30;85.00;;;;;;;-1.62;85.20;99895.82;88122;1299;22032;-77
2023/01/04 07:28:04;;;;;;;384.10;81.70;;;;;;;-1.62;85.22;99896.85;87516;1282;95392;-74
2023/01/04 07:30:07;;;;;;;340.20;78.40;;;;;;;-1.60;85.29;99900.33;85616;1296;99654;-72
2023/01/04 07:32:10;;;;;;;355.20;85.30;;;;;;;-1.58;85.37;99899.85;85765;1289;25703;-72
2023/01/04 07:34:12;;;;;;;392.70;82.70;;;;;;;-1.58;85.46;99895.89;86616;1291;22561;-74
2023/01/04 07:36:14;;;;;;;313.30;79.40;;;;;;;-1.58;85.40;99897.61;86294;1284;99450;-72
2023/01/04 07:38:15;;;;;;;416.00;98.00;;;;;;;-1.57;85.50;99899.86;85983;1289;22604;-71
2023/01/04 07:40:17;;;;;;;450.20;97.40;;;;;;;-1.56;85.41;99897.30;86204;1287;22480;-71
2023/01/04 07:42:20;;;;;;;560.60;98.10;;;;;;;-1.55;85.55;99892.84;86104;1303;99432;-71
2023/01/04 07:44:24;;;;;;;381.50;92.20;;;;;;;-1.54;85.59;99894.40;86275;1286;22477;-72
2023/01/04 07:46:26;;;;;;;573.20;101.20;;;;;;;-1.52;85.56;99896.13;86164;1289;22479;-72
2023/01/04 07:48:28;;;;;;;503.80;98.00;;;;;;;-1.52;85.56;99896.14;86342;1284;99618;-72
2023/01/04 07:50:30;;;;;;;282.30;87.80;;;;;;;-1.52;85.60;99896.83;86242;1289;24266;-72
2023/01/04 07:52:32;;;;;;;190.10;85.50;;;;;;;-1.53;85.54;99897.52;86171;1291;22433;-72
2023/01/04 07:54:34;;;;;;;304.00;91.80;;;;;;;-1.55;85.70;99899.04;86186;1289;98299;-72
2023/01/04 07:56:36;;;;;;;236.30;91.30;;;;;;;-1.54;85.56;99896.30;86174;1290;26728;-71
2023/01/04 07:58:38;;;;;;;255.40;95.60;;;;;;;-1.54;85.56;99891.13;86367;1284;22451;-71
2023/01/04 08:00:40;;;;;;;200.60;90.40;;;;;;;-1.52;85.56;99885.62;86373;1291;99486;-72
2023/01/04 08:02:42;;;;;;;169.00;87.00;;;;;;;-1.52;85.61;99884.06;86284;1286;22526;-72
2023/01/04 08:04:44;;;;;;;173.30;89.70;;;;;;;-1.51;85.57;99884.61;86524;1286;22493;-73
2023/01/04 08:06:45;;;;;;;178.50;90.70;;;;;;;-1.51;85.70;99876.67;86323;1287;100810;-73
2023/01/04 08:08:47;;;;;;;165.30;92.00;;;;;;;-1.45;85.81;99884.02;86465;1284;22604;-73
2023/01/04 08:10:49;;;;;;;164.50;88.20;;;;;;;-1.40;85.80;99881.52;86350;1280;22582;-73
2023/01/04 08:12:51;;;;;;;164.80;89.30;;;;;;;-1.34;85.78;99881.41;86175;1289;99588;-74
2023/01/04 08:14:52;;;;;;;159.70;93.20;;;;;;;-1.30;85.84;99881.65;86351;1288;22710;-72
2023/01/04 08:16:54;;;;;;;155.20;91.00;;;;;;;-1.23;85.90;99876.91;86300;1287;24895;-73
2023/01/04 08:18:58;;;;;;;152.50;87.30;;;;;;;-1.16;85.98;99872.35;86345;1287;101017;-73
2023/01/04 08:21:01;;;;;;;157.30;87.00;;;;;;;-1.09;85.99;99865.38;86498;1281;22520;-74
2023/01/04 08:23:03;;;;;;;153.50;88.20;;;;;;;-1.04;85.97;99866.83;86397;1288;22505;-73
2023/01/04 08:25:05;;;;;;;161.50;91.90;;;;;;;-0.97;86.07;99855.70;86313;1289;99475;-72
2023/01/04 08:27:07;;;;;;;152.80;88.50;;;;;;;-0.91;86.00;99851.99;86264;1290;22482;-74
2023/01/04 08:29:10;;;;;;;150.90;85.90;;;;;;;-0.83;86.15;99856.05;86242;1291;25387;-74
2023/01/04 08:31:17;;;;;;;155.00;91.90;;;;;;;-0.75;86.05;99856.83;86343;1282;99588;-74
2023/01/04 08:33:19;;;;;;;156.70;91.50;;;;;;;-0.67;86.08;99860.02;86247;1285;22522;-74
2023/01/04 08:35:20;;;;;;;149.70;86.00;;;;;;;-0.59;86.20;99867.38;86258;1288;22882;-73
2023/01/04 08:37:22;;;;;;;159.10;93.10;;;;;;;-0.51;86.32;99869.89;86221;1290;99390;-73
2023/01/04 08:39:24;;;;;;;154.70;88.90;;;;;;;-0.43;86.30;99866.16;86430;1284;23879;-74
2023/01/04 08:41:25;;;;;;;168.90;90.40;;;;;;;-0.34;86.44;99866.26;86171;1284;99986;-73
2023/01/04 08:43:27;;;;;;;163.60;86.30;;;;;;;-0.27;86.31;99871.52;86303;1287;22558;-73
2023/01/04 08:45:29;;;;;;;154.20;84.60;;;;;;;-0.20;86.51;99869.35;86206;1288;22551;-73
2023/01/04 08:47:32;;;;;;;147.70;80.90;;;;;;;-0.12;86.44;99867.17;86254;1290;99999;-74
2023/01/04 08:49:33;;;;;;;143.80;82.30;;;;;;;-0.04;86.61;99868.28;86268;1289;22800;-72
2023/01/04 08:51:35;;;;;;;136.50;78.30;;;;;;;0.04;86.49;99867.32;86195;1290;22597;-74
2023/01/04 08:53:37;;;;;;;141.80;79.20;;;;;;;0.11;86.56;99867.91;86213;1287;100491;-72
2023/01/04 08:55:39;;;;;;;143.60;82.90;;;;;;;0.24;86.60;99860.41;86197;1287;22513;-73
2023/01/04 08:57:41;;;;;;;147.70;78.50;;;;;;;0.44;86.54;99856.57;86243;1287;22488;-74
2023/01/04 08:59:43;;;;;;;143.50;79.40;;;;;;;0.69;86.93;99854.30;86153;1287;98499;-74
2023/01/04 09:01:44;;;;;;;143.70;76.30;;;;;;;0.90;86.94;99851.66;86218;1288;24253;-74
2023/01/04 09:03:46;;;;;;;134.10;76.20;;;;;;;1.03;86.77;99847.23;86162;1291;22505;-74
2023/01/04 09:05:48;;;;;;;134.60;74.30;;;;;;;1.12;87.16;99848.83;86143;1290;98804;-74
2023/01/04 09:07:49;;;;;;;134.30;74.00;;;;;;;1.18;86.66;99847.29;86345;1284;22540;-75
2023/01/04 09:09:51;;;;;;;128.80;72.70;;;;;;;1.27;86.79;99848.36;86241;1287;25858;-73
2023/01/04 09:11:53;;;;;;;111.80;64.20;;;;;;;1.36;86.73;99841.64;86070;1287;99301;-74
2023/01/04 09:13:57;;;;;;;110.80;65.10;;;;;;;1.48;86.69;99837.68;86200;1287;22690;-73
2023/01/04 09:16:03;;;;;;;115.10;65.30;;;;;;;1.58;86.44;99838.76;86164;1291;22612;-74
2023/01/04 09:18:06;;;;;;;115.00;65.90;;;;;;;1.71;86.67;99833.77;86258;1281;98444;-74
2023/01/04 09:20:08;;;;;;;121.40;67.80;;;;;;;1.82;86.57;99827.02;86079;1283;25921;-73
2023/01/04 09:22:10;;;;;;;122.70;66.70;;;;;;;1.86;86.23;99826.16;86067;1291;22659;-73
2023/01/04 09:24:12;;;;;;;107.20;64.40;;;;;;;1.91;86.40;99818.02;86114;1281;100071;-74
2023/01/04 09:26:20;;;;;;;112.30;60.90;;;;;;;2.01;86.35;99814.20;86188;1287;22495;-72
2023/01/04 09:28:22;;;;;;;106.90;58.60;;;;;;;2.10;86.34;99809.70;86245;1287;22513;-72
2023/01/04 09:30:23;;;;;;;110.10;63.20;;;;;;;2.15;86.36;99806.05;86210;1281;100006;-74
2023/01/04 09:32:26;;;;;;;112.70;64.90;;;;;;;2.24;86.22;99802.56;86074;1287;22586;-75
2023/01/04 09:34:28;;;;;;;102.30;59.60;;;;;;;2.32;86.46;99799.10;86121;1291;22640;-74
2023/01/04 09:36:29;;;;;;;109.20;61.70;;;;;;;2.39;86.45;99794.58;86119;1287;98289;-73
2023/01/04 09:38:32;;;;;;;108.50;62.50;;;;;;;2.45;86.11;99789.18;86122;1286;22483;-73
2023/01/04 09:40:51;;;;;;;102.60;58.10;;;;;;;2.53;86.18;99782.23;86070;1289;25991;-73
2023/01/04 09:42:53;;;;;;;94.20;55.60;;;;;;;2.64;86.68;99777.69;86070;1287;98130;-73
2023/01/04 09:45:03;;;;;;;103.60;60.90;;;;;;;2.72;86.20;99772.98;86058;1290;22490;-73
2023/01/04 09:47:11;;;;;;;94.20;54.20;;;;;;;2.84;86.16;99770.86;86040;1292;26618;-72
2023/01/04 09:49:18;;;;;;;98.60;53.80;;;;;;;2.93;86.50;99762.48;86062;1291;99579;-73
2023/01/04 09:51:25;;;;;;;98.50;56.20;;;;;;;3.01;86.47;99761.23;86336;1287;22489;-73
2023/01/04 09:53:49;;;;;;;99.40;55.70;;;;;;;3.11;86.29;99759.98;86165;1290;22608;-72
2023/01/04 09:55:55;;;;;;;97.90;56.10;;;;;;;3.25;86.05;99756.59;86252;1286;25966;-73
2023/01/04 09:58:07;;;;;;;93.60;50.70;;;;;;;3.38;86.15;99751.83;86150;1291;23502;-74
2023/01/04 10:00:15;;;;;;;95.80;47.30;;;;;;;3.56;86.10;99743.36;86073;1283;98476;-73
2023/01/04 10:02:46;;;;;;;93.90;47.50;;;;;;;3.79;86.15;99739.89;86417;1281;24250;-73
2023/01/04 10:04:50;;;;;;;74.40;43.50;;;;;;;4.23;86.39;99723.84;86372;1281;24410;-75
2023/01/04 10:06:52;;;;;;;77.10;42.40;;;;;;;4.56;86.06;99718.08;86130;1286;99174;-73
2023/01/04 10:09:00;;;;;;;68.50;41.00;;;;;;;4.74;85.65;99713.16;86092;1283;23392;-73
2023/01/04 10:11:30;;;;;;;78.10;44.00;;;;;;;4.98;85.85;99702.92;86243;1280;22422;-72
2023/01/04 10:14:00;;;;;;;73.40;38.70;;;;;;;5.20;85.54;99696.87;86279;1291;25243;-73